WEATHER

Warnervale Skycam

North West View

North West View

South West View

South West View

Sydney Airport Forecast

  • YSSY TAF

    TAF AMD YSSY 141400Z 1414/1518 VRB03KT CAVOK FM141800 29008KT CAVOK RMK T 18 17 16 21 Q 1014 1014 1015 1015 TAF3

  • YSSY METAR

    METAR YSSY 141530Z 29006KT CAVOK 18/07 Q1014 RMK RF00.0/000.0

All information provided on this page is for general information and should NOT be used for flight planning.